createdAt,value
2019-02-24T00:01:51.463Z,3.53
2019-02-24T00:04:18.676Z,3.42
2019-02-24T00:06:46.321Z,3.44
2019-02-24T00:09:14.789Z,3.30
2019-02-24T00:11:41.510Z,3.25
2019-02-24T00:14:08.284Z,3.34
2019-02-24T00:16:35.520Z,3.42
2019-02-24T00:19:03.776Z,3.47
2019-02-24T00:21:31.646Z,3.48
2019-02-24T00:23:59.215Z,3.27
2019-02-24T00:26:26.166Z,3.15
2019-02-24T00:28:54.464Z,3.06
2019-02-24T00:31:21.593Z,2.86
2019-02-24T00:33:49.042Z,2.77
2019-02-24T00:36:16.165Z,2.83
2019-02-24T00:38:43.999Z,2.83
2019-02-24T00:41:11.403Z,2.84
2019-02-24T00:43:38.434Z,3.75
2019-02-24T00:46:05.606Z,4.58
2019-02-24T00:48:32.957Z,4.13
2019-02-24T00:51:00.927Z,4.86
2019-02-24T00:53:27.611Z,4.59
2019-02-24T00:55:55.016Z,4.76
2019-02-24T00:58:22.166Z,4.19
2019-02-24T01:00:48.837Z,5.32
2019-02-24T01:03:16.024Z,4.55
2019-02-24T01:05:43.110Z,4.94
2019-02-24T01:08:10.559Z,4.04
2019-02-24T01:10:37.706Z,3.45
2019-02-24T01:13:04.481Z,3.19
2019-02-24T01:15:31.666Z,3.12
2019-02-24T01:17:59.361Z,3.02
2019-02-24T01:20:26.134Z,2.97
2019-02-24T01:22:53.610Z,2.88
2019-02-24T01:25:20.805Z,2.75
2019-02-24T01:27:48.129Z,2.73
2019-02-24T01:30:15.030Z,2.68
2019-02-24T01:32:41.962Z,2.65
2019-02-24T01:35:09.592Z,2.60
2019-02-24T01:37:37.085Z,2.48
2019-02-24T01:40:03.870Z,2.53
2019-02-24T01:42:31.067Z,2.58
2019-02-24T01:44:58.525Z,2.69
2019-02-24T01:47:26.298Z,2.68
2019-02-24T01:49:53.584Z,2.56
2019-02-24T01:52:20.546Z,2.42
2019-02-24T01:54:47.453Z,2.44
2019-02-24T01:57:14.365Z,2.33
2019-02-24T01:59:41.675Z,2.33
2019-02-24T02:02:09.067Z,2.39
2019-02-24T02:04:36.417Z,2.35
2019-02-24T02:07:03.209Z,2.33
2019-02-24T02:09:29.893Z,2.36
2019-02-24T02:11:57.589Z,2.27
2019-02-24T02:14:25.437Z,2.26
2019-02-24T02:16:53.116Z,2.25
2019-02-24T02:19:20.554Z,2.21
2019-02-24T02:21:47.920Z,2.12
2019-02-24T02:24:14.854Z,2.07
2019-02-24T02:26:42.717Z,2.05
2019-02-24T02:29:09.636Z,1.98
2019-02-24T02:31:37.125Z,2.01
2019-02-24T02:34:04.281Z,1.97
2019-02-24T02:36:31.712Z,1.88
2019-02-24T02:38:58.391Z,1.87
2019-02-24T02:41:25.177Z,1.87
2019-02-24T02:43:51.853Z,1.84
2019-02-24T02:46:18.996Z,1.78
2019-02-24T02:48:46.657Z,1.71
2019-02-24T02:51:13.778Z,1.82
2019-02-24T02:53:41.146Z,1.85
2019-02-24T02:56:08.655Z,1.77
2019-02-24T02:58:36.221Z,1.83
2019-02-24T03:01:03.958Z,1.75
2019-02-24T03:03:30.722Z,1.79
2019-02-24T03:06:17.293Z,1.79
2019-02-24T03:08:44.448Z,1.74
2019-02-24T03:11:11.314Z,1.69
2019-02-24T03:13:38.613Z,1.60
2019-02-24T03:16:05.287Z,1.55
2019-02-24T03:18:32.000Z,1.40
2019-02-24T03:20:59.629Z,1.42
2019-02-24T03:23:27.348Z,1.57
2019-02-24T03:25:54.282Z,1.74
2019-02-24T03:28:36.642Z,1.95
2019-02-24T03:31:03.941Z,2.08
2019-02-24T03:33:31.400Z,2.03
2019-02-24T03:35:58.749Z,2.11
2019-02-24T03:38:43.842Z,2.02
2019-02-24T03:41:25.835Z,1.81
2019-02-24T03:43:53.127Z,1.75
2019-02-24T03:46:20.198Z,1.73
2019-02-24T03:48:47.978Z,1.81
2019-02-24T03:51:15.542Z,1.96
2019-02-24T03:53:42.397Z,1.87
2019-02-24T03:56:09.554Z,1.72
2019-02-24T03:58:45.717Z,1.80
2019-02-24T04:01:13.078Z,1.76
2019-02-24T04:03:39.860Z,1.74
2019-02-24T04:06:07.554Z,1.58
2019-02-24T04:08:34.928Z,1.45
2019-02-24T04:11:02.560Z,1.36
2019-02-24T04:13:29.246Z,1.35
2019-02-24T04:15:56.707Z,1.32
2019-02-24T04:18:23.964Z,1.31
2019-02-24T04:20:51.131Z,1.45
2019-02-24T04:23:18.105Z,1.45
2019-02-24T04:25:45.142Z,1.33
2019-02-24T04:28:12.475Z,1.41
2019-02-24T04:30:39.799Z,1.43
2019-02-24T04:33:06.561Z,1.31
2019-02-24T04:35:33.554Z,1.22
2019-02-24T04:38:01.409Z,1.17
2019-02-24T04:40:28.968Z,1.11
2019-02-24T04:42:56.334Z,1.11
2019-02-24T04:45:23.898Z,1.27
2019-02-24T04:47:50.673Z,1.30
2019-02-24T04:50:18.317Z,1.19
2019-02-24T04:52:47.894Z,1.22
2019-02-24T04:55:21.575Z,1.26
2019-02-24T04:57:48.242Z,1.07
2019-02-24T05:00:15.684Z,1.10
2019-02-24T05:02:42.370Z,1.09
2019-02-24T05:05:09.445Z,1.24
2019-02-24T05:07:36.390Z,1.16
2019-02-24T05:10:04.948Z,1.21
2019-02-24T05:12:32.458Z,1.09
2019-02-24T05:15:00.031Z,1.14
2019-02-24T05:17:46.162Z,1.35
2019-02-24T05:20:13.423Z,1.27
2019-02-24T05:22:40.116Z,1.46
2019-02-24T05:25:07.588Z,1.79
2019-02-24T05:27:35.645Z,1.34
2019-02-24T05:30:03.445Z,1.27
2019-02-24T05:32:31.958Z,1.38
2019-02-24T05:34:59.131Z,0.99
2019-02-24T05:37:26.094Z,1.29
2019-02-24T05:39:54.437Z,1.41
2019-02-24T05:42:21.109Z,1.29
2019-02-24T05:44:47.844Z,1.08
2019-02-24T05:47:14.870Z,1.19
2019-02-24T05:49:42.327Z,0.94
2019-02-24T05:52:25.571Z,0.94
2019-02-24T05:54:52.690Z,1.12
2019-02-24T05:57:20.180Z,1.31
2019-02-24T05:59:54.998Z,1.25
2019-02-24T06:02:15.459Z,1.18
2019-02-24T06:04:42.864Z,0.95
2019-02-24T06:07:10.002Z,1.15
2019-02-24T06:09:37.306Z,1.09
2019-02-24T06:12:05.122Z,1.13
2019-02-24T06:14:31.806Z,1.32
2019-02-24T06:16:59.514Z,1.32
2019-02-24T06:19:27.307Z,1.21
2019-02-24T06:21:54.606Z,0.91
2019-02-24T06:24:21.645Z,0.83
2019-02-24T06:26:48.553Z,1.18
2019-02-24T06:29:15.975Z,1.25
2019-02-24T06:31:42.655Z,1.18
2019-02-24T06:34:26.004Z,0.93
2019-02-24T06:36:53.527Z,0.82
2019-02-24T06:39:20.200Z,0.74
2019-02-24T06:41:47.303Z,0.71
2019-02-24T06:44:14.234Z,0.86
2019-02-24T06:46:41.267Z,0.95
2019-02-24T06:49:08.620Z,1.13
2019-02-24T06:51:36.393Z,1.27
2019-02-24T06:54:03.750Z,1.15
2019-02-24T06:56:31.637Z,0.96
2019-02-24T06:58:58.895Z,1.08
2019-02-24T07:01:25.566Z,0.19
2019-02-24T07:03:52.238Z,1.07
2019-02-24T07:06:19.420Z,0.95
2019-02-24T07:08:56.899Z,1.00
2019-02-24T07:11:23.949Z,1.07
2019-02-24T07:13:51.706Z,1.01
2019-02-24T07:16:19.048Z,1.06
2019-02-24T07:18:45.712Z,1.19
2019-02-24T07:21:12.489Z,1.33
2019-02-24T07:23:39.588Z,1.32
2019-02-24T07:26:06.914Z,1.19
2019-02-24T07:28:33.751Z,1.36
2019-02-24T07:31:35.089Z,1.54
2019-02-24T07:34:02.478Z,1.56
2019-02-24T07:36:30.051Z,1.50
2019-02-24T07:38:57.365Z,1.56
2019-02-24T07:41:24.138Z,1.76
2019-02-24T07:43:51.312Z,1.81
2019-02-24T07:46:18.689Z,1.93
2019-02-24T07:48:46.197Z,1.87
2019-02-24T07:51:13.526Z,1.82
2019-02-24T07:53:41.477Z,1.88
2019-02-24T07:56:08.883Z,2.00
2019-02-24T07:58:35.939Z,2.02
2019-02-24T08:01:03.303Z,2.22
2019-02-24T08:03:30.777Z,2.40
2019-02-24T08:05:59.130Z,2.45
2019-02-24T08:08:25.825Z,2.48
2019-02-24T08:10:52.897Z,2.57
2019-02-24T08:13:20.124Z,2.68
2019-02-24T08:15:46.809Z,2.78
2019-02-24T08:18:14.121Z,2.82
2019-02-24T08:20:40.810Z,2.90
2019-02-24T08:23:07.496Z,3.10
2019-02-24T08:25:34.324Z,3.27
2019-02-24T08:28:10.446Z,3.44
2019-02-24T08:30:41.529Z,3.52
2019-02-24T08:33:06.072Z,3.60
2019-02-24T08:35:33.155Z,3.72
2019-02-24T08:38:00.959Z,3.84
2019-02-24T08:40:27.617Z,4.02
2019-02-24T08:43:05.311Z,4.12
2019-02-24T08:45:32.081Z,4.32
2019-02-24T08:47:59.345Z,4.44
2019-02-24T08:50:26.425Z,4.56
2019-02-24T08:52:54.111Z,4.72
2019-02-24T08:55:34.102Z,4.79
2019-02-24T08:58:01.702Z,4.87
2019-02-24T09:00:28.741Z,5.04
2019-02-24T09:02:55.943Z,5.17
2019-02-24T09:05:23.375Z,5.23
2019-02-24T09:08:11.999Z,5.34
2019-02-24T09:10:39.188Z,5.54
2019-02-24T09:13:06.345Z,5.73
2019-02-24T09:15:33.881Z,5.91
2019-02-24T09:18:15.248Z,6.01
2019-02-24T09:20:42.315Z,6.09
2019-02-24T09:23:09.347Z,6.36
2019-02-24T09:25:36.854Z,6.36
2019-02-24T09:28:04.587Z,6.45
2019-02-24T09:30:31.837Z,6.58
2019-02-24T09:32:58.785Z,6.56
2019-02-24T09:35:25.993Z,6.78
2019-02-24T09:37:52.909Z,6.97
2019-02-24T09:40:20.145Z,7.09
2019-02-24T09:42:47.697Z,7.22
2019-02-24T09:45:15.149Z,7.31
2019-02-24T09:47:46.748Z,7.34
2019-02-24T09:50:11.982Z,7.43
2019-02-24T09:52:39.465Z,7.53
2019-02-24T09:55:07.253Z,7.69
2019-02-24T09:57:33.902Z,7.73
2019-02-24T10:00:01.410Z,7.86
2019-02-24T10:02:28.786Z,7.86
2019-02-24T10:04:56.318Z,8.00
2019-02-24T10:07:23.590Z,8.21
2019-02-24T10:09:50.626Z,8.22
2019-02-24T10:12:17.973Z,8.28
2019-02-24T10:14:44.625Z,8.39
2019-02-24T10:17:11.309Z,8.50
2019-02-24T10:19:39.016Z,8.47
2019-02-24T10:22:05.877Z,8.64
2019-02-24T10:24:34.462Z,8.70
2019-02-24T10:27:01.606Z,8.92
2019-02-24T10:29:28.742Z,9.01
2019-02-24T10:31:55.435Z,9.06
2019-02-24T10:34:23.057Z,9.07
2019-02-24T10:36:50.198Z,9.05
2019-02-24T10:39:17.229Z,9.05
2019-02-24T10:41:44.026Z,9.16
2019-02-24T10:44:11.238Z,9.35
2019-02-24T10:46:38.782Z,9.53
2019-02-24T10:49:05.839Z,9.48
2019-02-24T10:51:33.493Z,9.47
2019-02-24T10:54:00.962Z,9.65
2019-02-24T10:56:28.435Z,9.62
2019-02-24T10:58:55.091Z,9.74
2019-02-24T11:01:29.325Z,9.84
2019-02-24T11:03:51.803Z,9.97
2019-02-24T11:06:18.501Z,10.00
2019-02-24T11:08:45.326Z,9.97
2019-02-24T11:11:12.647Z,10.13
2019-02-24T11:13:40.100Z,10.23
2019-02-24T11:16:07.348Z,10.62
2019-02-24T11:18:34.905Z,10.51
2019-02-24T11:21:01.790Z,10.61
2019-02-24T11:23:29.186Z,10.61
2019-02-24T11:25:56.670Z,10.75
2019-02-24T11:28:24.227Z,11.76
2019-02-24T11:30:51.286Z,11.81
2019-02-24T11:33:19.322Z,11.45
2019-02-24T11:35:46.971Z,11.21
2019-02-24T11:38:14.470Z,11.85
2019-02-24T11:40:41.615Z,11.85
2019-02-24T11:43:08.860Z,12.01
2019-02-24T11:45:35.905Z,12.01
2019-02-24T11:48:03.995Z,11.83
2019-02-24T11:50:31.149Z,12.11
2019-02-24T11:52:57.835Z,11.98
2019-02-24T11:55:25.461Z,12.16
2019-02-24T11:57:53.008Z,12.14
2019-02-24T12:00:20.747Z,12.22
2019-02-24T12:02:48.013Z,12.34
2019-02-24T12:05:15.917Z,12.35
2019-02-24T12:07:42.715Z,12.56
2019-02-24T12:10:09.522Z,12.50
2019-02-24T12:12:38.260Z,12.59
2019-02-24T12:15:07.351Z,12.54
2019-02-24T12:17:35.515Z,12.59
2019-02-24T12:20:02.866Z,12.56
2019-02-24T12:22:30.623Z,12.56
2019-02-24T12:24:57.556Z,12.50
2019-02-24T12:27:25.238Z,12.72
2019-02-24T12:29:52.707Z,12.87
2019-02-24T12:32:20.134Z,12.93
2019-02-24T12:34:49.053Z,12.61
2019-02-24T12:37:17.497Z,12.90
2019-02-24T12:39:45.081Z,12.88
2019-02-24T12:42:12.626Z,13.22
2019-02-24T12:44:39.653Z,13.61
2019-02-24T12:47:06.317Z,13.85
2019-02-24T12:49:33.166Z,13.51
2019-02-24T12:52:00.173Z,13.53
2019-02-24T12:54:26.963Z,13.83
2019-02-24T12:56:54.093Z,14.23
2019-02-24T12:59:22.155Z,14.66
2019-02-24T13:01:49.269Z,14.39
2019-02-24T13:04:16.474Z,14.64
2019-02-24T13:06:43.698Z,14.83
2019-02-24T13:09:11.183Z,15.15
2019-02-24T13:11:38.841Z,15.51
2019-02-24T13:14:06.687Z,15.12
2019-02-24T13:16:33.858Z,15.50
2019-02-24T13:19:01.187Z,15.89
2019-02-24T13:21:28.561Z,15.90
2019-02-24T13:23:56.228Z,15.76
2019-02-24T13:26:23.465Z,15.73
2019-02-24T13:28:51.144Z,15.09
2019-02-24T13:31:18.250Z,14.89
2019-02-24T13:33:45.621Z,15.54
2019-02-24T13:36:12.654Z,16.03
2019-02-24T13:38:40.655Z,16.24
2019-02-24T13:41:08.011Z,16.22
2019-02-24T13:43:34.953Z,16.03
2019-02-24T13:46:02.111Z,16.35
2019-02-24T13:48:29.354Z,16.70
2019-02-24T13:50:56.283Z,16.34
2019-02-24T13:53:23.445Z,16.41
2019-02-24T13:55:50.494Z,16.91
2019-02-24T13:58:18.169Z,17.17
2019-02-24T14:00:45.708Z,17.66
2019-02-24T14:03:12.737Z,17.39
2019-02-24T14:05:39.761Z,17.45
2019-02-24T14:08:07.157Z,17.47
2019-02-24T14:10:34.053Z,18.46
2019-02-24T14:13:01.140Z,18.76
2019-02-24T14:15:27.965Z,19.10
2019-02-24T14:17:55.744Z,19.58
2019-02-24T14:20:23.429Z,19.12
2019-02-24T14:22:50.134Z,19.17
2019-02-24T14:25:17.142Z,19.24
2019-02-24T14:27:45.391Z,19.07
2019-02-24T14:30:12.751Z,19.03
2019-02-24T14:32:40.063Z,18.39
2019-02-24T14:35:09.565Z,18.54
2019-02-24T14:37:38.088Z,18.63
2019-02-24T14:40:05.378Z,18.62
2019-02-24T14:42:32.473Z,19.14
2019-02-24T14:44:59.629Z,18.93
2019-02-24T14:47:26.844Z,18.87
2019-02-24T14:49:54.115Z,19.18
2019-02-24T14:52:21.269Z,19.52
2019-02-24T14:54:48.448Z,19.46
2019-02-24T14:57:15.681Z,19.21
2019-02-24T14:59:42.341Z,18.82
2019-02-24T15:02:09.429Z,19.54
2019-02-24T15:04:36.518Z,19.00
2019-02-24T15:07:03.760Z,19.27
2019-02-24T15:09:30.709Z,19.03
2019-02-24T15:11:58.706Z,18.68
2019-02-24T15:14:25.938Z,17.90
2019-02-24T15:16:52.874Z,17.17
2019-02-24T15:19:20.166Z,17.09
2019-02-24T15:21:46.949Z,16.47
2019-02-24T15:24:14.120Z,16.26
2019-02-24T15:26:40.958Z,15.99
2019-02-24T15:29:07.586Z,15.79
2019-02-24T15:31:35.090Z,15.63
2019-02-24T15:34:02.626Z,15.44
2019-02-24T15:36:30.381Z,15.37
2019-02-24T15:38:57.051Z,15.04
2019-02-24T15:41:29.672Z,15.08
2019-02-24T15:43:52.971Z,14.64
2019-02-24T15:46:19.618Z,14.58
2019-02-24T15:48:46.303Z,14.27
2019-02-24T15:51:13.351Z,14.15
2019-02-24T15:53:40.030Z,14.27
2019-02-24T15:56:06.925Z,14.01
2019-02-24T15:58:33.686Z,13.77
2019-02-24T16:01:00.942Z,13.83
2019-02-24T16:03:28.294Z,13.72
2019-02-24T16:05:55.309Z,13.51
2019-02-24T16:08:22.395Z,13.56
2019-02-24T16:10:49.335Z,13.42
2019-02-24T16:13:17.383Z,13.34
2019-02-24T16:15:44.889Z,13.19
2019-02-24T16:18:13.093Z,13.04
2019-02-24T16:20:40.169Z,12.92
2019-02-24T16:23:08.893Z,12.81
2019-02-24T16:25:35.694Z,12.84
2019-02-24T16:28:03.510Z,12.98
2019-02-24T16:30:30.863Z,13.09
2019-02-24T16:32:58.169Z,13.15
2019-02-24T16:35:25.230Z,12.95
2019-02-24T16:37:53.526Z,12.92
2019-02-24T16:40:20.707Z,12.80
2019-02-24T16:42:47.686Z,12.64
2019-02-24T16:45:16.447Z,12.65
2019-02-24T16:47:54.753Z,12.47
2019-02-24T16:50:21.879Z,12.37
2019-02-24T16:52:50.037Z,12.38
2019-02-24T16:55:17.301Z,12.32
2019-02-24T16:57:44.565Z,12.19
2019-02-24T17:00:14.073Z,11.98
2019-02-24T17:02:41.605Z,11.89
2019-02-24T17:05:09.618Z,11.73
2019-02-24T17:07:36.916Z,11.70
2019-02-24T17:10:04.928Z,11.64
2019-02-24T17:12:31.963Z,11.62
2019-02-24T17:14:59.412Z,11.44
2019-02-24T17:17:28.999Z,11.32
2019-02-24T17:19:56.124Z,11.32
2019-02-24T17:22:23.152Z,11.38
2019-02-24T17:24:50.846Z,11.45
2019-02-24T17:27:18.396Z,11.17
2019-02-24T17:29:45.325Z,11.03
2019-02-24T17:32:12.153Z,10.97
2019-02-24T17:34:39.478Z,10.91
2019-02-24T17:37:06.419Z,10.92
2019-02-24T17:39:33.100Z,11.00
2019-02-24T17:42:00.330Z,11.00
2019-02-24T17:44:27.557Z,10.80
2019-02-24T17:46:54.362Z,10.68
2019-02-24T17:49:21.307Z,10.68
2019-02-24T17:51:48.242Z,10.75
2019-02-24T17:54:15.178Z,10.59
2019-02-24T17:56:42.077Z,10.55
2019-02-24T17:59:09.851Z,10.62
2019-02-24T18:01:36.994Z,11.11
2019-02-24T18:04:04.094Z,11.11
2019-02-24T18:06:31.084Z,11.47
2019-02-24T18:08:59.660Z,11.24
2019-02-24T18:11:26.796Z,11.24
2019-02-24T18:13:54.573Z,10.92
2019-02-24T18:16:21.697Z,10.92
2019-02-24T18:18:48.480Z,10.37
2019-02-24T18:21:15.176Z,10.74
2019-02-24T18:23:41.950Z,10.74
2019-02-24T18:26:08.734Z,10.99
2019-02-24T18:28:36.056Z,10.99
2019-02-24T18:31:04.120Z,10.82
2019-02-24T18:33:31.321Z,10.97
2019-02-24T18:35:59.637Z,10.67
2019-02-24T18:38:28.069Z,10.91
2019-02-24T18:40:55.359Z,10.96
2019-02-24T18:43:22.837Z,10.96
2019-02-24T18:45:49.809Z,9.92
2019-02-24T18:48:16.482Z,9.92
2019-02-24T18:50:43.270Z,9.75
2019-02-24T18:53:10.832Z,9.76
2019-02-24T18:55:38.281Z,9.44
2019-02-24T18:58:05.409Z,9.42
2019-02-24T19:00:39.943Z,9.13
2019-02-24T19:03:06.651Z,9.13
2019-02-24T19:05:34.027Z,9.12
2019-02-24T19:08:10.695Z,8.97
2019-02-24T19:10:37.752Z,8.86
2019-02-24T19:13:05.538Z,8.90
2019-02-24T19:15:36.333Z,8.79
2019-02-24T19:18:11.864Z,8.77
2019-02-24T19:20:39.379Z,8.79
2019-02-24T19:23:06.698Z,8.79
2019-02-24T19:25:41.692Z,8.71
2019-02-24T19:28:28.712Z,8.74
2019-02-24T19:30:58.479Z,8.74
2019-02-24T19:33:25.686Z,8.66
2019-02-24T19:35:52.384Z,8.58
2019-02-24T19:38:19.509Z,8.56
2019-02-24T19:40:51.639Z,8.50
2019-02-24T19:43:18.894Z,8.27
2019-02-24T19:45:45.822Z,8.37
2019-02-24T19:48:12.861Z,8.28
2019-02-24T19:50:40.655Z,8.34
2019-02-24T19:53:07.717Z,8.24
2019-02-24T19:55:35.305Z,8.16
2019-02-24T19:58:02.575Z,7.94
2019-02-24T20:00:29.696Z,7.67
2019-02-24T20:02:56.833Z,7.55
2019-02-24T20:05:25.455Z,7.65
2019-02-24T20:07:53.394Z,7.96
2019-02-24T20:10:20.198Z,8.01
2019-02-24T20:12:47.616Z,8.08
2019-02-24T20:15:15.356Z,8.05
2019-02-24T20:17:42.573Z,7.87
2019-02-24T20:20:10.688Z,7.81
2019-02-24T20:22:37.720Z,7.69
2019-02-24T20:25:05.534Z,7.59
2019-02-24T20:27:33.045Z,7.68
2019-02-24T20:30:00.714Z,7.70
2019-02-24T20:32:28.170Z,7.62
2019-02-24T20:34:56.023Z,7.52
2019-02-24T20:37:29.162Z,7.33
2019-02-24T20:39:58.084Z,7.33
2019-02-24T20:42:41.302Z,7.31
2019-02-24T20:45:09.891Z,7.25
2019-02-24T20:47:36.574Z,7.22
2019-02-24T20:50:04.532Z,7.08
2019-02-24T20:52:31.875Z,7.15
2019-02-24T20:54:59.258Z,7.09
2019-02-24T20:57:26.681Z,7.08
2019-02-24T20:59:54.130Z,7.06
2019-02-24T21:02:22.113Z,6.98
2019-02-24T21:04:48.778Z,6.85
2019-02-24T21:07:16.483Z,6.82
2019-02-24T21:09:43.293Z,6.63
2019-02-24T21:12:17.238Z,6.57
2019-02-24T21:14:44.582Z,6.46
2019-02-24T21:17:11.534Z,6.37
2019-02-24T21:19:39.770Z,6.32
2019-02-24T21:22:07.076Z,6.58
2019-02-24T21:24:34.348Z,6.57
2019-02-24T21:27:02.309Z,6.42
2019-02-24T21:29:29.410Z,6.53
2019-02-24T21:31:57.748Z,6.56
2019-02-24T21:34:25.009Z,6.48
2019-02-24T21:36:54.249Z,6.46
2019-02-24T21:39:21.934Z,6.35
2019-02-24T21:41:49.201Z,6.43
2019-02-24T21:44:16.762Z,6.34
2019-02-24T21:46:44.639Z,6.26
2019-02-24T21:49:43.232Z,6.26
2019-02-24T21:52:10.390Z,6.29
2019-02-24T21:54:37.838Z,6.14
2019-02-24T21:57:04.878Z,6.04
2019-02-24T21:59:36.952Z,5.75
2019-02-24T22:02:00.999Z,5.49
2019-02-24T22:04:28.359Z,5.48
2019-02-24T22:06:55.030Z,5.64
2019-02-24T22:09:21.710Z,5.61
2019-02-24T22:11:48.376Z,5.63
2019-02-24T22:14:15.157Z,5.84
2019-02-24T22:16:43.028Z,5.92
2019-02-24T22:19:10.306Z,6.06
2019-02-24T22:21:38.343Z,6.16
2019-02-24T22:24:05.987Z,6.16
2019-02-24T22:26:33.769Z,6.15
2019-02-24T22:29:01.301Z,5.98
2019-02-24T22:31:28.414Z,5.85
2019-02-24T22:33:55.076Z,5.53
2019-02-24T22:36:22.724Z,5.68
2019-02-24T22:38:50.078Z,5.71
2019-02-24T22:41:17.225Z,5.72
2019-02-24T22:43:44.303Z,5.70
2019-02-24T22:46:12.060Z,5.78
2019-02-24T22:48:39.686Z,5.80
2019-02-24T22:51:06.596Z,5.79
2019-02-24T22:53:33.694Z,5.60
2019-02-24T22:56:00.944Z,5.45
2019-02-24T22:58:28.380Z,5.38
2019-02-24T23:01:10.171Z,5.48
2019-02-24T23:03:41.224Z,5.51
2019-02-24T23:06:09.117Z,5.60
2019-02-24T23:08:36.023Z,5.65
2019-02-24T23:11:02.909Z,5.28
2019-02-24T23:13:30.169Z,5.32
2019-02-24T23:15:57.787Z,5.10
2019-02-24T23:18:25.181Z,4.97
2019-02-24T23:20:53.270Z,4.87
2019-02-24T23:23:20.390Z,4.81
2019-02-24T23:25:47.166Z,4.74
2019-02-24T23:28:13.845Z,4.70
2019-02-24T23:30:41.006Z,4.65
2019-02-24T23:33:07.793Z,4.59
2019-02-24T23:35:35.230Z,4.53
2019-02-24T23:38:02.010Z,4.33
2019-02-24T23:40:29.638Z,4.60
2019-02-24T23:42:56.970Z,4.56
2019-02-24T23:45:24.238Z,4.62
2019-02-24T23:47:51.553Z,4.52
2019-02-24T23:50:18.500Z,4.57
2019-02-24T23:52:46.066Z,4.69
2019-02-24T23:55:12.757Z,4.63
2019-02-24T23:57:40.407Z,4.28
